Time;durP1;ratioP1;P1;durP2;ratioP2;P2;SDS_P1;SDS_P2;PMS_P1;PMS_P2;Temp;Humidity;BMP_temperature;BMP_pressure;BME280_temperature;BME280_humidity;BME280_pressure;Samples;Min_cycle;Max_cycle;Signal;HPM_P1;HPM_P2
2022/10/05 00:01:33;;;;;;;12.02;6.10;;;;;;;14.18;100.00;101787.63;5277047;28;20469;-73
2022/10/05 00:04:17;;;;;;;13.77;6.07;;;;;;;14.21;100.00;101779.19;5266991;28;20030;-73
2022/10/05 00:07:07;;;;;;;10.27;5.80;;;;;;;14.25;100.00;101785.06;5285223;28;20386;-73
2022/10/05 00:09:37;;;;;;;10.43;5.60;;;;;;;14.28;100.00;101789.31;5270187;28;20035;-73
2022/10/05 00:12:16;;;;;;;15.50;5.88;;;;;;;14.31;100.00;101783.56;5281061;28;20020;-72
2022/10/05 00:14:50;;;;;;;12.35;5.63;;;;;;;14.34;100.00;101778.69;5267955;28;20089;-73
2022/10/05 00:17:23;;;;;;;18.98;5.63;;;;;;;14.36;100.00;101775.84;5281194;28;20051;-72
2022/10/05 00:19:54;;;;;;;14.98;5.75;;;;;;;14.36;100.00;101770.44;5269510;28;20020;-73
2022/10/05 00:22:32;;;;;;;15.45;5.78;;;;;;;14.36;100.00;101770.44;5282652;28;20018;-73
2022/10/05 00:25:12;;;;;;;12.32;5.80;;;;;;;14.36;100.00;101770.44;5289230;28;20114;-73
2022/10/05 00:27:48;;;;;;;8.02;5.25;;;;;;;14.36;100.00;101765.03;5274981;28;20042;-74
2022/10/05 00:30:20;;;;;;;8.73;5.28;;;;;;;14.36;100.00;101768.56;5289108;28;20029;-73
2022/10/05 00:32:51;;;;;;;11.85;4.65;;;;;;;14.38;100.00;101768.41;5270339;28;20026;-73
2022/10/05 00:35:22;;;;;;;11.70;5.80;;;;;;;14.37;100.00;101766.72;5267961;28;20028;-73
2022/10/05 00:37:54;;;;;;;8.82;5.28;;;;;;;14.38;100.00;101768.41;5289083;28;20016;-74
2022/10/05 00:40:59;;;;;;;12.60;5.47;;;;;;;14.39;100.00;101770.09;5272851;28;20028;-73
2022/10/05 00:44:04;;;;;;;11.35;5.60;;;;;;;14.38;100.00;101763.00;5262325;28;20088;-72
2022/10/05 00:47:08;;;;;;;15.90;4.90;;;;;;;14.37;100.00;101762.16;5276466;28;20535;-73
2022/10/05 00:50:17;;;;;;;9.10;5.00;;;;;;;14.38;100.00;101757.59;5269895;28;20059;-73
2022/10/05 00:52:53;;;;;;;11.07;4.72;;;;;;;14.34;100.00;101757.09;5288021;28;20046;-73
2022/10/05 00:55:29;;;;;;;9.90;4.93;;;;;;;14.35;100.00;101749.81;5274921;28;20039;-73
2022/10/05 00:58:09;;;;;;;8.93;5.38;;;;;;;14.35;100.00;101752.53;5289983;28;20098;-73
2022/10/05 01:00:58;;;;;;;12.48;5.28;;;;;;;14.32;100.00;101750.19;5282222;28;20389;-74
2022/10/05 01:04:06;;;;;;;10.25;5.43;;;;;;;14.32;100.00;101761.81;5268680;28;20481;-74
2022/10/05 01:07:04;;;;;;;9.18;4.88;;;;;;;14.31;100.00;101756.56;5284940;28;20028;-73
2022/10/05 01:09:43;;;;;;;9.98;5.38;;;;;;;14.28;100.00;101759.63;5265229;28;20437;-73
2022/10/05 01:12:32;;;;;;;10.23;5.50;;;;;;;14.27;100.00;101761.47;5289258;28;20027;-73
2022/10/05 01:15:48;;;;;;;9.05;5.03;;;;;;;14.24;100.00;101751.84;5287962;28;20116;-74
2022/10/05 01:18:47;;;;;;;12.10;5.90;;;;;;;14.24;100.00;101753.72;5230711;28;20520;-75
2022/10/05 01:21:23;;;;;;;9.10;5.10;;;;;;;14.25;100.00;101755.38;5244528;28;20023;-74
2022/10/05 01:24:15;;;;;;;11.35;5.25;;;;;;;14.20;100.00;101746.97;5280553;28;20047;-74
2022/10/05 01:27:15;;;;;;;8.55;5.10;;;;;;;14.16;100.00;101738.38;5262066;28;20062;-73
2022/10/05 01:30:11;;;;;;;11.75;5.30;;;;;;;14.16;100.00;101737.53;5274902;28;20503;-73
2022/10/05 01:32:53;;;;;;;15.27;5.38;;;;;;;14.11;100.00;101735.34;5277201;27;20270;-73
2022/10/05 01:35:29;;;;;;;9.50;5.43;;;;;;;14.09;100.00;101733.81;5274886;28;20076;-73
2022/10/05 01:38:11;;;;;;;9.82;4.93;;;;;;;14.06;100.00;101740.41;5261891;28;20031;-73
2022/10/05 01:40:44;;;;;;;12.10;5.30;;;;;;;14.02;100.00;101725.53;5256164;28;20034;-73
2022/10/05 01:43:32;;;;;;;9.68;5.13;;;;;;;13.96;100.00;101723.53;5279385;28;20023;-74
2022/10/05 01:46:25;;;;;;;10.40;5.30;;;;;;;13.92;100.00;101727.56;5279625;28;20024;-73
2022/10/05 01:49:12;;;;;;;12.55;5.18;;;;;;;13.88;100.00;101718.09;5286495;28;20028;-73
2022/10/05 01:52:07;;;;;;;12.20;5.30;;;;;;;13.83;100.00;101720.47;5287662;27;20116;-74
2022/10/05 01:55:02;;;;;;;11.45;6.47;;;;;;;13.80;100.00;101710.84;5267517;28;20048;-73
2022/10/05 01:57:48;;;;;;;10.52;5.35;;;;;;;13.75;100.00;101707.78;5265513;28;20386;-72
2022/10/05 02:00:19;;;;;;;12.00;6.43;;;;;;;13.68;100.00;101704.09;5287708;28;20027;-73
2022/10/05 02:03:16;;;;;;;12.65;5.82;;;;;;;13.63;100.00;101699.19;5272720;28;20524;-73
2022/10/05 02:05:54;;;;;;;13.35;6.25;;;;;;;13.60;100.00;101694.13;5262918;28;20145;-72
2022/10/05 02:08:33;;;;;;;16.65;6.43;;;;;;;13.57;100.00;101701.72;5267548;28;20030;-73
2022/10/05 02:11:07;;;;;;;11.57;6.75;;;;;;;13.54;100.00;101694.78;5279382;28;20023;-72
2022/10/05 02:13:46;;;;;;;17.00;6.60;;;;;;;13.54;100.00;101694.78;5287935;28;20027;-72
2022/10/05 02:16:24;;;;;;;12.98;6.22;;;;;;;13.54;100.00;101693.94;5273797;28;20015;-72
2022/10/05 02:19:04;;;;;;;11.95;6.38;;;;;;;13.53;100.00;101695.78;5287706;28;20024;-72
2022/10/05 02:21:35;;;;;;;12.32;6.45;;;;;;;13.55;100.00;101682.13;5288198;27;20098;-72
2022/10/05 02:24:12;;;;;;;10.43;5.90;;;;;;;13.54;100.00;101680.47;5287408;27;20497;-73
2022/10/05 02:26:42;;;;;;;12.73;6.65;;;;;;;13.52;100.00;101685.19;5271715;28;20030;-72
2022/10/05 02:29:15;;;;;;;11.55;6.30;;;;;;;13.49;100.00;101675.56;5262887;28;20263;-72
2022/10/05 02:31:53;;;;;;;12.65;7.18;;;;;;;13.47;100.00;101664.97;5267475;28;20032;-72
2022/10/05 02:34:30;;;;;;;13.30;6.90;;;;;;;13.42;100.00;101661.91;5266936;28;20035;-72
2022/10/05 02:37:28;;;;;;;12.55;6.88;;;;;;;13.33;100.00;101657.50;5267987;28;20031;-73
2022/10/05 02:40:16;;;;;;;12.90;6.32;;;;;;;13.25;100.00;101652.09;5246532;28;20036;-72
2022/10/05 02:42:47;;;;;;;14.57;6.82;;;;;;;13.19;100.00;101656.25;5273780;28;20020;-73
2022/10/05 02:45:34;;;;;;;13.43;7.30;;;;;;;13.10;100.00;101654.56;5285154;28;20035;-73
2022/10/05 02:48:10;;;;;;;13.05;6.45;;;;;;;13.05;100.00;101656.91;5266774;28;20027;-72
2022/10/05 02:51:03;;;;;;;13.95;7.10;;;;;;;13.03;100.00;101650.81;5264736;28;20027;-73
2022/10/05 02:53:57;;;;;;;16.50;7.45;;;;;;;13.01;100.00;101652.00;5266419;28;20093;-72
2022/10/05 02:56:35;;;;;;;15.32;7.10;;;;;;;12.99;100.00;101654.00;5278865;28;20046;-73
2022/10/05 02:59:15;;;;;;;14.65;7.45;;;;;;;12.96;100.00;101660.56;5274988;28;20409;-72
2022/10/05 03:01:53;;;;;;;16.73;7.80;;;;;;;12.94;100.00;101659.84;5270102;28;20020;-72
2022/10/05 03:04:46;;;;;;;15.25;7.40;;;;;;;12.94;100.00;101657.16;5255374;28;20329;-72
2022/10/05 03:07:29;;;;;;;20.45;7.72;;;;;;;12.95;100.00;101656.16;5275358;28;20027;-74
2022/10/05 03:10:10;;;;;;;19.13;8.98;;;;;;;12.95;100.00;101657.03;5264831;28;20019;-72
2022/10/05 03:12:55;;;;;;;17.23;7.88;;;;;;;12.96;100.00;101652.47;5278042;28;20354;-74
2022/10/05 03:15:37;;;;;;;17.95;8.15;;;;;;;12.94;100.00;101647.22;5274822;28;20019;-72
2022/10/05 03:18:25;;;;;;;20.27;7.38;;;;;;;12.96;100.00;101647.94;5281347;28;20102;-72
2022/10/05 03:21:34;;;;;;;14.48;7.60;;;;;;;12.96;100.00;101645.25;5280572;28;20043;-72
2022/10/05 03:24:23;;;;;;;18.67;8.70;;;;;;;12.98;100.00;101637.00;5272586;27;20042;-73
2022/10/05 03:27:11;;;;;;;14.75;7.28;;;;;;;12.98;100.00;101634.28;5268526;28;20024;-73
2022/10/05 03:29:42;;;;;;;16.70;7.85;;;;;;;12.98;100.00;101641.53;5278102;28;20030;-72
2022/10/05 03:32:24;;;;;;;17.20;8.13;;;;;;;12.97;100.00;101643.38;5265227;28;20428;-73
2022/10/05 03:35:11;;;;;;;15.25;7.75;;;;;;;12.97;100.00;101640.69;5264648;28;20028;-73
2022/10/05 03:38:07;;;;;;;15.57;8.18;;;;;;;12.97;100.00;101643.38;5265134;28;20560;-73
2022/10/05 03:40:49;;;;;;;16.20;7.05;;;;;;;12.98;100.00;101642.38;5250959;28;20559;-74
2022/10/05 03:43:51;;;;;;;16.30;7.60;;;;;;;13.00;100.00;101639.50;5270074;28;20495;-73
2022/10/05 03:46:36;;;;;;;16.10;6.80;;;;;;;13.01;100.00;101635.84;5285564;28;20426;-73
2022/10/05 03:49:41;;;;;;;15.43;7.07;;;;;;;13.04;100.00;101639.03;5265938;28;20026;-74
2022/10/05 03:52:41;;;;;;;18.27;7.27;;;;;;;13.06;100.00;101637.03;5265138;28;20488;-74
2022/10/05 03:55:23;;;;;;;14.13;7.63;;;;;;;13.09;100.00;101641.22;5241464;28;20044;-73
2022/10/05 03:57:58;;;;;;;13.60;6.90;;;;;;;13.12;100.00;101641.75;5277398;28;20220;-73
2022/10/05 04:00:31;;;;;;;17.40;7.43;;;;;;;13.12;100.00;101636.38;5272107;28;20031;-73
2022/10/05 04:03:14;;;;;;;12.40;6.30;;;;;;;13.13;100.00;101635.34;5268184;28;20025;-73
2022/10/05 04:05:52;;;;;;;13.13;7.28;;;;;;;13.14;100.00;101634.34;5274377;28;20511;-73
2022/10/05 04:08:34;;;;;;;13.00;7.07;;;;;;;13.15;100.00;101632.50;5281183;28;20036;-73
2022/10/05 04:11:11;;;;;;;11.45;6.90;;;;;;;13.14;100.00;101628.94;5257048;28;20031;-74
2022/10/05 04:13:50;;;;;;;11.68;7.05;;;;;;;13.16;100.00;101629.66;5273374;28;20020;-73
2022/10/05 04:16:30;;;;;;;15.15;6.35;;;;;;;13.16;100.00;101626.97;5271728;28;20253;-74
2022/10/05 04:19:23;;;;;;;14.68;6.20;;;;;;;13.18;100.00;101624.94;5274183;28;20473;-72
2022/10/05 04:22:01;;;;;;;12.80;5.80;;;;;;;13.18;100.00;101627.63;5251579;28;20039;-73
2022/10/05 04:24:54;;;;;;;17.48;6.28;;;;;;;13.18;100.00;101629.47;5267682;28;20024;-73
2022/10/05 04:27:38;;;;;;;22.65;6.03;;;;;;;13.22;100.00;101625.50;5257402;28;20101;-73
2022/10/05 04:30:13;;;;;;;14.02;5.80;;;;;;;13.23;100.00;101626.31;5265173;28;20027;-75
2022/10/05 04:32:49;;;;;;;10.35;5.75;;;;;;;13.25;100.00;101619.75;5269038;28;20357;-74
2022/10/05 04:35:28;;;;;;;13.32;5.80;;;;;;;13.28;100.00;101619.44;5268006;28;20439;-73
2022/10/05 04:38:38;;;;;;;12.07;5.22;;;;;;;13.28;100.00;101618.59;5255439;28;20042;-73
2022/10/05 04:41:30;;;;;;;13.38;5.60;;;;;;;13.29;100.00;101612.19;5251001;28;20036;-73
2022/10/05 04:44:16;;;;;;;15.60;5.43;;;;;;;13.30;100.00;101605.78;5271183;28;20032;-72
2022/10/05 04:46:56;;;;;;;12.20;5.15;;;;;;;13.30;100.00;101600.41;5274117;28;20036;-73
2022/10/05 04:49:47;;;;;;;11.82;4.88;;;;;;;13.31;100.00;101610.19;5289672;28;20032;-75
2022/10/05 04:52:41;;;;;;;10.88;4.55;;;;;;;13.29;100.00;101610.34;5282875;28;20126;-74
2022/10/05 04:55:45;;;;;;;10.23;5.20;;;;;;;13.30;100.00;101598.53;5271761;28;20050;-74
2022/10/05 04:58:43;;;;;;;7.00;4.30;;;;;;;13.30;100.00;101592.31;5274486;28;20027;-75
2022/10/05 05:01:43;;;;;;;10.65;4.60;;;;;;;13.31;100.00;101594.03;5281761;28;20055;-74
2022/10/05 05:04:44;;;;;;;8.57;4.35;;;;;;;13.32;100.00;101596.53;5258812;28;20026;-74
2022/10/05 05:07:23;;;;;;;8.68;4.43;;;;;;;13.31;100.00;101594.03;5256656;28;20113;-74
2022/10/05 05:10:04;;;;;;;7.85;4.60;;;;;;;13.30;100.00;101582.38;5271939;28;20016;-73
2022/10/05 05:12:56;;;;;;;7.68;4.63;;;;;;;13.31;100.00;101575.16;5276023;28;20036;-73
2022/10/05 05:15:39;;;;;;;11.63;5.25;;;;;;;13.33;100.00;101578.50;5256246;28;20392;-73
2022/10/05 05:18:12;;;;;;;9.73;4.70;;;;;;;13.33;100.00;101571.28;5281524;28;20032;-73
2022/10/05 05:20:42;;;;;;;13.07;4.63;;;;;;;13.32;100.00;101566.91;5280915;28;20114;-74
2022/10/05 05:23:37;;;;;;;7.63;4.15;;;;;;;13.35;100.00;101576.47;5268185;28;20107;-74
2022/10/05 05:26:18;;;;;;;7.85;4.38;;;;;;;13.36;100.00;101575.50;5270724;28;20487;-74
2022/10/05 05:29:04;;;;;;;7.88;3.95;;;;;;;13.39;100.00;101558.97;5275044;28;20039;-72
2022/10/05 05:31:47;;;;;;;8.80;4.45;;;;;;;13.38;100.00;101570.78;5255315;28;20370;-72
2022/10/05 05:34:34;;;;;;;9.38;4.15;;;;;;;13.39;100.00;101572.44;5264734;28;20028;-72
2022/10/05 05:37:32;;;;;;;8.88;4.65;;;;;;;13.41;100.00;101560.50;5266941;28;20110;-72
2022/10/05 05:40:08;;;;;;;7.88;4.43;;;;;;;13.47;100.00;101564.38;5254541;28;20033;-72
2022/10/05 05:42:51;;;;;;;13.10;4.50;;;;;;;13.47;100.00;101556.28;5257007;28;20028;-72
2022/10/05 05:45:27;;;;;;;9.30;5.00;;;;;;;13.51;100.00;101560.34;5266668;28;20040;-72
2022/10/05 05:48:01;;;;;;;9.73;4.78;;;;;;;13.50;100.00;101553.25;5278825;28;20035;-73
2022/10/05 05:50:39;;;;;;;8.13;4.75;;;;;;;13.50;100.00;101558.63;5274257;28;20102;-72
2022/10/05 05:53:23;;;;;;;7.38;4.15;;;;;;;13.50;100.00;101555.94;5288039;28;20028;-72
2022/10/05 05:55:59;;;;;;;9.35;4.25;;;;;;;13.52;100.00;101548.56;5278508;28;20374;-73
2022/10/05 05:58:42;;;;;;;11.00;4.95;;;;;;;13.54;100.00;101546.50;5279674;28;20027;-73
2022/10/05 06:01:31;;;;;;;7.68;4.43;;;;;;;13.56;100.00;101549.91;5267390;28;20020;-72
2022/10/05 06:04:11;;;;;;;11.10;4.47;;;;;;;13.60;100.00;101553.09;5258651;28;20028;-72
2022/10/05 06:06:47;;;;;;;9.35;4.50;;;;;;;13.60;100.00;101548.53;5280382;28;20027;-72
2022/10/05 06:09:32;;;;;;;13.77;5.05;;;;;;;13.62;100.00;101559.16;5264436;28;20029;-72
2022/10/05 06:12:12;;;;;;;10.57;4.78;;;;;;;13.61;100.00;101561.03;5262623;28;20055;-73
2022/10/05 06:14:48;;;;;;;7.53;4.78;;;;;;;13.63;100.00;101558.16;5281934;28;20057;-73
2022/10/05 06:17:44;;;;;;;11.20;4.57;;;;;;;13.65;100.00;101558.81;5268382;28;20127;-73
2022/10/05 06:20:38;;;;;;;8.48;3.90;;;;;;;13.68;100.00;101562.03;5252560;28;20048;-73
2022/10/05 06:23:18;;;;;;;8.48;4.25;;;;;;;13.70;100.00;101564.53;5271534;28;20027;-73
2022/10/05 06:26:07;;;;;;;8.02;3.75;;;;;;;13.73;100.00;101564.22;5271402;28;20545;-73
2022/10/05 06:28:38;;;;;;;8.80;3.78;;;;;;;13.76;100.00;101563.03;5260313;28;20024;-73
2022/10/05 06:31:36;;;;;;;8.60;3.95;;;;;;;13.78;100.00;101558.31;5262385;28;20023;-72
2022/10/05 06:34:42;;;;;;;7.72;3.38;;;;;;;13.80;100.00;101556.28;5269713;28;20036;-73
2022/10/05 06:37:24;;;;;;;8.20;3.88;;;;;;;13.84;100.00;101561.16;5269633;28;20035;-73
2022/10/05 06:40:02;;;;;;;5.35;3.53;;;;;;;13.87;100.00;101560.81;5254575;28;20071;-73
2022/10/05 06:42:47;;;;;;;6.35;3.15;;;;;;;13.89;100.00;101558.78;5260236;28;20385;-72
2022/10/05 06:45:34;;;;;;;6.95;3.40;;;;;;;13.93;100.00;101562.84;5284131;28;20015;-72
2022/10/05 06:48:26;;;;;;;6.82;3.00;;;;;;;13.96;100.00;101557.13;5273204;28;20032;-72
2022/10/05 06:51:07;;;;;;;5.07;3.35;;;;;;;14.01;100.00;101559.31;5263981;28;20039;-72
2022/10/05 06:53:53;;;;;;;7.97;3.08;;;;;;;14.02;100.00;101552.03;5277725;28;20032;-73
2022/10/05 06:56:34;;;;;;;8.30;4.47;;;;;;;14.03;100.00;101554.56;5263608;28;20046;-73
2022/10/05 06:59:24;;;;;;;6.68;3.45;;;;;;;14.08;100.00;101559.44;5275861;28;20016;-73
2022/10/05 07:02:13;;;;;;;6.03;3.13;;;;;;;14.14;100.00;101548.78;5263238;28;20028;-73
2022/10/05 07:04:51;;;;;;;6.80;3.50;;;;;;;14.18;100.00;101557.41;5259818;28;20028;-73
2022/10/05 07:07:37;;;;;;;6.45;3.10;;;;;;;14.22;100.00;101556.03;5284949;28;20019;-73
2022/10/05 07:10:15;;;;;;;;;;;;;;;14.29;100.00;101553.47;5264885;28;20020;-72
2022/10/05 07:12:55;;;;;;;8.27;2.72;;;;;;;14.34;100.00;101551.94;5277587;28;19918;-73
2022/10/05 07:16:01;;;;;;;7.70;3.03;;;;;;;14.40;100.00;101547.69;5271762;28;20114;-73
2022/10/05 07:19:21;;;;;;;5.57;2.65;;;;;;;14.45;100.00;101553.41;5252097;28;20034;-73
2022/10/05 07:22:10;;;;;;;6.05;2.90;;;;;;;14.53;100.00;101547.19;5260421;28;20042;-73
2022/10/05 07:25:07;;;;;;;5.50;3.17;;;;;;;14.57;100.00;101554.78;5264585;28;20039;-73
2022/10/05 07:27:48;;;;;;;10.90;3.22;;;;;;;14.64;100.00;101560.31;5263649;28;20027;-73
2022/10/05 07:30:19;;;;;;;7.38;2.65;;;;;;;14.66;100.00;101550.16;5263507;28;20020;-73
2022/10/05 07:33:08;;;;;;;6.35;3.10;;;;;;;14.71;100.00;101554.03;5283441;28;20034;-72
2022/10/05 07:39:10;;;;;;;5.93;2.75;;;;;;;14.84;100.00;101549.91;5265122;27;20032;-72
2022/10/05 07:41:46;;;;;;;5.72;3.00;;;;;;;14.91;100.00;101551.75;5248687;28;20474;-72
2022/10/05 07:44:42;;;;;;;6.25;2.92;;;;;;;14.98;100.00;101550.00;5262721;28;20058;-72
2022/10/05 07:47:37;;;;;;;8.20;2.55;;;;;;;15.03;100.00;101550.31;5268260;28;20065;-72
2022/10/05 07:50:26;;;;;;;7.53;2.83;;;;;;;15.08;100.00;101544.38;5268173;28;20516;-72
2022/10/05 07:53:03;;;;;;;6.78;2.60;;;;;;;15.14;100.00;101543.66;5263951;28;20028;-73
2022/10/05 07:55:48;;;;;;;3.60;2.13;;;;;;;15.23;100.00;101545.28;5269714;28;20449;-73
2022/10/05 07:58:30;;;;;;;7.60;2.67;;;;;;;15.30;100.00;101550.78;5284204;28;20054;-73
2022/10/05 08:01:10;;;;;;;4.38;2.30;;;;;;;15.36;100.00;101554.63;5284124;28;20020;-72
2022/10/05 08:03:55;;;;;;;3.55;2.33;;;;;;;15.40;100.00;101548.69;5261911;28;20114;-72
2022/10/05 08:06:44;;;;;;;5.57;2.25;;;;;;;15.39;100.00;101549.72;5265324;28;20397;-72
2022/10/05 08:09:25;;;;;;;7.63;2.17;;;;;;;15.46;100.00;101544.41;5265957;28;20043;-73
2022/10/05 08:11:55;;;;;;;4.50;2.47;;;;;;;15.50;100.00;101549.28;5253321;28;20032;-72
2022/10/05 08:14:38;;;;;;;10.52;2.90;;;;;;;15.55;100.00;101549.56;5266344;28;20112;-72
2022/10/05 08:17:39;;;;;;;9.90;2.65;;;;;;;15.61;100.00;101548.00;5277777;28;20035;-72
2022/10/05 08:20:28;;;;;;;7.57;2.88;;;;;;;15.63;100.00;101543.31;5254595;28;20024;-72
2022/10/05 08:23:25;;;;;;;7.95;2.55;;;;;;;15.68;100.00;101543.59;5286849;28;20039;-72
2022/10/05 08:26:16;;;;;;;4.28;2.60;;;;;;;15.76;100.00;101538.13;5287299;28;20023;-72
2022/10/05 08:28:57;;;;;;;4.38;2.20;;;;;;;15.83;100.00;101538.22;5273170;28;20042;-72
2022/10/05 08:31:34;;;;;;;3.70;2.17;;;;;;;15.91;100.00;101538.13;5253946;28;20046;-73
2022/10/05 08:34:21;;;;;;;5.45;2.15;;;;;;;15.92;100.00;101528.16;5280245;28;20062;-72
2022/10/05 08:36:59;;;;;;;6.10;2.38;;;;;;;15.99;100.00;101527.22;5279545;28;20530;-72
2022/10/05 08:39:37;;;;;;;7.43;2.42;;;;;;;16.04;100.00;101532.91;5258987;28;20394;-72
2022/10/05 08:42:29;;;;;;;4.85;2.25;;;;;;;16.10;100.00;101534.03;5264374;28;20374;-73
2022/10/05 08:45:17;;;;;;;5.22;2.20;;;;;;;16.16;100.00;101536.00;5286809;28;20084;-72
2022/10/05 08:48:10;;;;;;;4.97;2.80;;;;;;;16.24;100.00;101522.38;5287865;28;20500;-72
2022/10/05 08:51:11;;;;;;;4.28;2.28;;;;;;;16.32;100.00;101529.59;5287313;28;20063;-72
2022/10/05 08:53:56;;;;;;;9.68;2.47;;;;;;;16.42;100.00;101519.31;5287702;28;20036;-72
2022/10/05 08:56:36;;;;;;;6.10;1.88;;;;;;;16.48;100.00;101526.66;5272749;27;20111;-72
2022/10/05 08:59:16;;;;;;;6.60;2.00;;;;;;;16.54;100.00;101525.91;5264591;28;20032;-72
2022/10/05 09:02:09;;;;;;;5.32;2.15;;;;;;;16.61;100.00;101519.72;5264085;28;20036;-72
2022/10/05 09:04:46;;;;;;;3.92;1.60;;;;;;;16.63;100.00;101521.22;5264133;28;20488;-72
2022/10/05 09:07:21;;;;;;;6.13;2.28;;;;;;;16.65;100.00;101521.88;5267257;28;20031;-72
2022/10/05 09:09:54;;;;;;;2.75;1.77;;;;;;;16.69;100.00;101517.75;5268587;28;20080;-72
2022/10/05 09:12:39;;;;;;;3.92;1.90;;;;;;;16.81;100.00;101515.41;5266203;28;20047;-72
2022/10/05 09:15:26;;;;;;;;;;;;;;;16.80;100.00;101525.41;5273507;28;20412;-72
2022/10/05 09:18:08;;;;;;;;;;;;;;;16.87;100.00;101522.81;5267560;28;19919;-72
2022/10/05 09:20:54;;;;;;;4.20;2.08;;;;;;;16.90;100.00;101510.72;5265438;28;19999;-72
2022/10/05 09:23:30;;;;;;;;;;;;;;;16.94;100.00;101514.72;5264264;28;20012;-72
2022/10/05 09:26:22;;;;;;;3.05;1.60;;;;;;;17.03;100.00;101521.72;5268340;28;19916;-71
2022/10/05 09:29:29;;;;;;;5.78;2.00;;;;;;;16.99;100.00;101518.53;5272461;28;20023;-72
2022/10/05 09:32:26;;;;;;;6.72;1.88;;;;;;;16.97;100.00;101523.31;5274989;28;20384;-72
2022/10/05 09:35:12;;;;;;;3.15;1.98;;;;;;;17.09;100.00;101515.53;5267111;28;20051;-72
2022/10/05 09:37:55;;;;;;;5.72;1.60;;;;;;;17.22;100.00;101520.22;5263996;28;20119;-73
2022/10/05 09:40:40;;;;;;;4.35;1.85;;;;;;;17.32;100.00;101515.34;5269198;28;20300;-72
2022/10/05 09:43:29;;;;;;;3.77;1.80;;;;;;;17.34;100.00;101505.13;5271561;28;20016;-72
2022/10/05 09:46:14;;;;;;;3.08;1.63;;;;;;;17.30;100.00;101501.94;5264654;28;20745;-72
2022/10/05 09:48:50;;;;;;;4.82;1.67;;;;;;;17.37;100.00;101487.59;5265013;28;20036;-72
2022/10/05 09:51:45;;;;;;;3.03;1.67;;;;;;;17.38;100.00;101492.03;5266829;28;20040;-73
2022/10/05 09:54:19;;;;;;;3.85;1.67;;;;;;;17.54;100.00;101500.72;5273092;28;20062;-73
2022/10/05 09:57:07;;;;;;;3.25;1.88;;;;;;;17.69;100.00;101492.47;5274924;28;20060;-73
2022/10/05 09:59:41;;;;;;;4.57;1.70;;;;;;;17.86;100.00;101482.19;5270506;28;20028;-72
2022/10/05 10:02:26;;;;;;;3.15;1.70;;;;;;;17.86;100.00;101479.47;5271009;28;20055;-72
2022/10/05 10:05:19;;;;;;;6.80;2.08;;;;;;;18.02;100.00;101483.72;5261569;28;20028;-73
2022/10/05 10:08:21;;;;;;;8.80;1.88;;;;;;;18.13;100.00;101471.50;5262717;28;20046;-73
2022/10/05 10:11:23;;;;;;;4.65;1.88;;;;;;;18.23;100.00;101478.22;5263064;28;20136;-73
2022/10/05 10:14:51;;;;;;;4.25;1.83;;;;;;;18.36;100.00;101472.84;5274504;28;20372;-72
2022/10/05 10:17:54;;;;;;;3.28;2.15;;;;;;;18.62;100.00;101471.25;5278929;28;20039;-72
2022/10/05 10:20:35;;;;;;;3.72;1.65;;;;;;;18.65;100.00;101473.59;5264954;28;20027;-72
2022/10/05 10:23:21;;;;;;;6.00;2.00;;;;;;;18.88;100.00;101460.53;5272415;28;20046;-73
2022/10/05 10:26:10;;;;;;;3.70;1.95;;;;;;;18.94;100.00;101466.19;5284520;28;20031;-73
2022/10/05 10:28:59;;;;;;;3.03;1.52;;;;;;;19.21;100.00;101465.16;5269040;28;20537;-73
2022/10/05 10:31:58;;;;;;;6.13;1.92;;;;;;;19.20;100.00;101465.38;5269917;28;20039;-73
2022/10/05 10:35:05;;;;;;;3.85;1.70;;;;;;;19.53;100.00;101462.63;5259123;28;20085;-73
2022/10/05 10:37:57;;;;;;;;;;;;;;;19.89;100.00;101446.72;5266307;28;20027;-73
2022/10/05 10:40:38;;;;;;;3.05;1.75;;;;;;;19.85;100.00;101450.06;5268924;28;19912;-73
2022/10/05 10:43:24;;;;;;;3.05;1.73;;;;;;;19.75;100.00;101447.78;5272585;28;20024;-73
2022/10/05 10:46:29;;;;;;;;;;;;;;;19.62;100.00;101459.50;5259626;28;20417;-73
2022/10/05 10:49:15;;;;;;;6.38;2.10;;;;;;;19.25;100.00;101457.41;5224747;28;19908;-73
2022/10/05 10:51:58;;;;;;;2.78;1.73;;;;;;;19.39;100.00;101440.88;5263932;28;20035;-73
2022/10/05 10:55:06;;;;;;;5.15;2.28;;;;;;;19.40;100.00;101441.72;5263019;28;20264;-73
2022/10/05 10:57:50;;;;;;;3.17;1.73;;;;;;;19.41;100.00;101449.66;5267019;28;20039;-73
2022/10/05 11:00:22;;;;;;;8.15;1.88;;;;;;;19.38;100.00;101433.78;5262549;28;20112;-73
2022/10/05 11:03:10;;;;;;;2.90;1.88;;;;;;;19.25;100.00;101428.34;5256156;28;20031;-73
2022/10/05 11:06:08;;;;;;;5.65;2.25;;;;;;;19.38;100.00;101435.66;5257357;28;20032;-73
2022/10/05 11:09:02;;;;;;;6.10;1.98;;;;;;;19.26;100.00;101424.56;5269072;28;20081;-73
2022/10/05 11:11:49;;;;;;;4.93;1.98;;;;;;;19.61;100.00;101424.34;5276756;28;20031;-73
2022/10/05 11:14:38;;;;;;;5.60;1.90;;;;;;;19.91;100.00;101422.81;5265570;28;20039;-73
2022/10/05 11:17:33;;;;;;;3.55;1.42;;;;;;;20.04;100.00;101410.22;5286241;28;20027;-73
2022/10/05 11:20:19;;;;;;;3.03;1.55;;;;;;;19.78;100.00;101411.13;5286294;28;20130;-73
2022/10/05 11:23:42;;;;;;;4.18;1.90;;;;;;;19.77;100.00;101410.28;5273121;28;20055;-73
2022/10/05 11:26:50;;;;;;;2.17;1.70;;;;;;;19.79;100.00;101400.03;5257774;28;20374;-73
2022/10/05 11:29:39;;;;;;;5.20;1.52;;;;;;;19.85;100.00;101417.41;5278736;28;20034;-74
2022/10/05 11:32:46;;;;;;;5.32;1.83;;;;;;;19.66;100.00;101402.78;5271766;28;20125;-73
2022/10/05 11:35:44;;;;;;;5.95;2.00;;;;;;;19.70;100.00;101398.59;5264663;28;20031;-73
2022/10/05 11:38:45;;;;;;;2.90;1.95;;;;;;;19.49;100.00;101398.81;5266175;28;20067;-74
2022/10/05 11:41:33;;;;;;;3.85;2.13;;;;;;;19.54;100.00;101396.28;5235720;28;20135;-73
2022/10/05 11:44:22;;;;;;;8.60;2.00;;;;;;;20.03;100.00;101393.06;5276612;28;20024;-74
2022/10/05 11:47:03;;;;;;;4.22;2.03;;;;;;;20.14;100.00;101394.25;5279333;28;20522;-73
2022/10/05 11:49:48;;;;;;;4.93;1.80;;;;;;;20.12;100.00;101393.63;5264913;28;20016;-74
2022/10/05 11:52:25;;;;;;;4.60;1.90;;;;;;;19.94;100.00;101380.72;5279010;28;20428;-74
2022/10/05 11:55:09;;;;;;;5.72;1.92;;;;;;;20.02;100.00;101380.47;5278322;28;20090;-74
2022/10/05 11:58:00;;;;;;;4.68;2.20;;;;;;;20.30;100.00;101371.97;5286264;28;20388;-74
2022/10/05 12:00:41;;;;;;;3.90;1.95;;;;;;;20.36;100.00;101376.53;5276050;28;20485;-74
2022/10/05 12:03:41;;;;;;;5.75;1.83;;;;;;;20.44;100.00;101367.28;5259328;28;20485;-74
2022/10/05 12:06:19;;;;;;;3.28;1.90;;;;;;;20.43;100.00;101361.00;5272326;28;20024;-74
2022/10/05 12:09:17;;;;;;;3.78;1.42;;;;;;;20.55;100.00;101363.88;5252538;28;20021;-74
2022/10/05 12:12:11;;;;;;;3.60;1.50;;;;;;;20.36;100.00;101354.72;5268435;28;20024;-74
2022/10/05 12:14:47;;;;;;;3.20;1.77;;;;;;;20.60;100.00;101344.13;5268521;28;20036;-74
2022/10/05 12:17:28;;;;;;;6.28;1.70;;;;;;;20.36;100.00;101349.28;5265225;28;20512;-74
2022/10/05 12:20:09;;;;;;;2.92;1.60;;;;;;;19.99;100.00;101353.69;5278377;28;20024;-73
2022/10/05 12:22:48;;;;;;;5.53;1.83;;;;;;;20.24;100.00;101358.38;5279835;28;20020;-73
2022/10/05 12:25:44;;;;;;;3.10;1.63;;;;;;;20.57;100.00;101344.56;5275003;28;20024;-73
2022/10/05 12:28:21;;;;;;;5.55;1.73;;;;;;;20.54;100.00;101347.75;5251626;28;20025;-73
2022/10/05 12:31:16;;;;;;;3.58;2.47;;;;;;;20.79;100.00;101358.69;5278548;28;20031;-73
2022/10/05 12:34:00;;;;;;;14.65;2.00;;;;;;;20.54;100.00;101351.31;5264732;28;20108;-73
2022/10/05 12:36:52;;;;;;;3.92;1.60;;;;;;;20.22;100.00;101353.13;5261868;28;20028;-73
2022/10/05 12:39:55;;;;;;;5.90;1.80;;;;;;;20.30;100.00;101344.72;5257487;28;20542;-72
2022/10/05 12:42:49;;;;;;;3.33;1.75;;;;;;;20.20;100.00;101344.34;5252417;28;20194;-73
2022/10/05 12:45:48;;;;;;;6.10;2.15;;;;;;;20.14;100.00;101356.13;5266061;28;20024;-73